sensor_id;sensor_type;location;lat;lon;timestamp;pressure;altitude;pressure_sealevel;temperature;humidity
41467;BME280;27205;53.690;19.948;2023-04-24T00:03:25;99043.33;;;14.08;47.55
41467;BME280;27205;53.690;19.948;2023-04-24T00:08:29;99036.55;;;14.04;47.99
41467;BME280;27205;53.690;19.948;2023-04-24T00:13:33;99025.86;;;13.99;48.49
41467;BME280;27205;53.690;19.948;2023-04-24T00:18:36;99025.31;;;13.93;48.71
41467;BME280;27205;53.690;19.948;2023-04-24T00:23:40;99018.90;;;13.88;49.13
41467;BME280;27205;53.690;19.948;2023-04-24T00:28:43;99013.61;;;13.89;49.40
41467;BME280;27205;53.690;19.948;2023-04-24T00:33:47;99009.57;;;13.85;49.38
41467;BME280;27205;53.690;19.948;2023-04-24T00:38:50;99004.72;;;13.81;49.59
41467;BME280;27205;53.690;19.948;2023-04-24T00:43:54;99007.60;;;13.79;49.46
41467;BME280;27205;53.690;19.948;2023-04-24T00:48:59;99006.02;;;13.80;49.41
41467;BME280;27205;53.690;19.948;2023-04-24T00:54:03;99009.97;;;13.84;49.35
41467;BME280;27205;53.690;19.948;2023-04-24T00:59:06;99010.92;;;13.92;49.50
41467;BME280;27205;53.690;19.948;2023-04-24T01:04:11;99008.27;;;13.98;49.78
41467;BME280;27205;53.690;19.948;2023-04-24T01:09:15;99006.23;;;14.00;50.05
41467;BME280;27205;53.690;19.948;2023-04-24T01:14:20;99005.41;;;14.03;50.21
41467;BME280;27205;53.690;19.948;2023-04-24T01:19:23;99004.63;;;14.00;50.88
41467;BME280;27205;53.690;19.948;2023-04-24T01:24:27;99007.59;;;13.95;50.88
41467;BME280;27205;53.690;19.948;2023-04-24T01:29:31;99008.06;;;13.92;51.13
41467;BME280;27205;53.690;19.948;2023-04-24T01:34:35;99006.52;;;13.90;51.25
41467;BME280;27205;53.690;19.948;2023-04-24T01:39:39;99001.84;;;13.89;51.44
41467;BME280;27205;53.690;19.948;2023-04-24T01:44:43;99004.28;;;13.86;51.68
41467;BME280;27205;53.690;19.948;2023-04-24T01:49:47;99011.45;;;13.87;51.26
41467;BME280;27205;53.690;19.948;2023-04-24T01:54:52;99012.80;;;13.89;51.58
41467;BME280;27205;53.690;19.948;2023-04-24T01:59:56;99010.21;;;13.93;51.77
41467;BME280;27205;53.690;19.948;2023-04-24T02:04:59;99006.20;;;13.98;51.99
41467;BME280;27205;53.690;19.948;2023-04-24T02:10:04;99005.17;;;14.00;52.52
41467;BME280;27205;53.690;19.948;2023-04-24T02:15:08;99001.15;;;14.00;52.23
41467;BME280;27205;53.690;19.948;2023-04-24T02:20:12;98995.95;;;14.01;52.61
41467;BME280;27205;53.690;19.948;2023-04-24T02:25:15;98990.13;;;13.99;52.87
41467;BME280;27205;53.690;19.948;2023-04-24T02:30:19;98984.46;;;13.97;53.19
41467;BME280;27205;53.690;19.948;2023-04-24T02:35:23;98970.45;;;13.94;53.58
41467;BME280;27205;53.690;19.948;2023-04-24T02:40:26;98971.55;;;13.94;53.73
41467;BME280;27205;53.690;19.948;2023-04-24T02:45:30;98971.40;;;13.95;53.48
41467;BME280;27205;53.690;19.948;2023-04-24T02:50:33;98966.01;;;13.95;53.67
41467;BME280;27205;53.690;19.948;2023-04-24T02:55:37;98967.79;;;13.91;53.97
41467;BME280;27205;53.690;19.948;2023-04-24T03:00:40;98956.02;;;13.91;54.19
41467;BME280;27205;53.690;19.948;2023-04-24T03:05:44;98957.36;;;13.94;54.18
41467;BME280;27205;53.690;19.948;2023-04-24T03:10:48;98952.02;;;14.01;54.42
41467;BME280;27205;53.690;19.948;2023-04-24T03:15:51;98949.37;;;14.05;54.71
41467;BME280;27205;53.690;19.948;2023-04-24T03:20:55;98950.41;;;14.06;54.97
41467;BME280;27205;53.690;19.948;2023-04-24T03:25:58;98951.53;;;14.05;55.24
41467;BME280;27205;53.690;19.948;2023-04-24T03:31:03;98950.05;;;14.06;55.43
41467;BME280;27205;53.690;19.948;2023-04-24T03:36:07;98954.54;;;14.06;55.80
41467;BME280;27205;53.690;19.948;2023-04-24T03:41:10;98948.78;;;14.09;55.61
41467;BME280;27205;53.690;19.948;2023-04-24T03:46:14;98947.04;;;14.13;55.64
41467;BME280;27205;53.690;19.948;2023-04-24T03:51:18;98944.42;;;14.20;55.86
41467;BME280;27205;53.690;19.948;2023-04-24T03:56:21;98941.92;;;14.29;55.91
41467;BME280;27205;53.690;19.948;2023-04-24T04:01:25;98940.95;;;14.35;56.20
41467;BME280;27205;53.690;19.948;2023-04-24T04:06:28;98942.29;;;14.37;56.36
41467;BME280;27205;53.690;19.948;2023-04-24T04:11:34;98946.65;;;14.39;56.42
41467;BME280;27205;53.690;19.948;2023-04-24T04:16:38;98953.14;;;14.40;56.32
41467;BME280;27205;53.690;19.948;2023-04-24T04:21:42;98951.85;;;14.48;56.37
41467;BME280;27205;53.690;19.948;2023-04-24T04:26:45;98953.77;;;14.52;56.56
41467;BME280;27205;53.690;19.948;2023-04-24T04:31:50;98947.45;;;14.58;56.63
41467;BME280;27205;53.690;19.948;2023-04-24T04:36:54;98943.81;;;14.65;56.61
41467;BME280;27205;53.690;19.948;2023-04-24T04:41:57;98942.29;;;14.69;56.76
41467;BME280;27205;53.690;19.948;2023-04-24T04:47:01;98942.45;;;14.80;56.69
41467;BME280;27205;53.690;19.948;2023-04-24T04:52:09;98947.46;;;14.88;56.79
41467;BME280;27205;53.690;19.948;2023-04-24T04:57:12;98946.60;;;14.96;57.08
41467;BME280;27205;53.690;19.948;2023-04-24T05:02:16;98954.23;;;15.06;57.32
41467;BME280;27205;53.690;19.948;2023-04-24T05:07:20;98959.21;;;15.16;57.37
41467;BME280;27205;53.690;19.948;2023-04-24T05:12:23;98958.35;;;15.24;57.72
41467;BME280;27205;53.690;19.948;2023-04-24T05:17:27;98959.59;;;15.35;57.91
41467;BME280;27205;53.690;19.948;2023-04-24T05:22:31;98961.05;;;15.45;57.85
41467;BME280;27205;53.690;19.948;2023-04-24T05:27:35;98966.77;;;15.65;57.85
41467;BME280;27205;53.690;19.948;2023-04-24T05:32:38;98965.44;;;15.92;58.04
41467;BME280;27205;53.690;19.948;2023-04-24T05:37:42;98969.03;;;16.07;58.26
41467;BME280;27205;53.690;19.948;2023-04-24T05:42:45;98978.45;;;16.30;58.20
41467;BME280;27205;53.690;19.948;2023-04-24T05:47:49;98976.79;;;16.42;58.34
41467;BME280;27205;53.690;19.948;2023-04-24T05:52:54;98980.95;;;16.52;58.42
41467;BME280;27205;53.690;19.948;2023-04-24T05:57:58;98982.90;;;16.56;58.66
41467;BME280;27205;53.690;19.948;2023-04-24T06:03:01;98981.05;;;16.52;58.99
41467;BME280;27205;53.690;19.948;2023-04-24T06:08:07;98981.29;;;16.47;59.20
41467;BME280;27205;53.690;19.948;2023-04-24T06:13:10;98982.70;;;16.57;58.97
41467;BME280;27205;53.690;19.948;2023-04-24T06:18:15;98984.23;;;16.66;59.21
41467;BME280;27205;53.690;19.948;2023-04-24T06:23:18;98986.38;;;16.75;59.33
41467;BME280;27205;53.690;19.948;2023-04-24T06:28:22;98988.07;;;16.79;59.39
41467;BME280;27205;53.690;19.948;2023-04-24T06:33:25;98989.98;;;16.89;59.25
41467;BME280;27205;53.690;19.948;2023-04-24T06:38:29;98982.81;;;16.97;59.01
41467;BME280;27205;53.690;19.948;2023-04-24T06:43:33;98983.07;;;16.97;58.82
41467;BME280;27205;53.690;19.948;2023-04-24T06:48:37;98980.05;;;16.96;58.89
41467;BME280;27205;53.690;19.948;2023-04-24T06:53:40;98977.63;;;16.93;58.69
41467;BME280;27205;53.690;19.948;2023-04-24T06:58:44;98978.81;;;16.85;58.85
41467;BME280;27205;53.690;19.948;2023-04-24T07:03:48;98976.98;;;16.69;59.24
41467;BME280;27205;53.690;19.948;2023-04-24T07:08:51;98976.83;;;16.51;59.75
41467;BME280;27205;53.690;19.948;2023-04-24T07:13:56;98975.44;;;16.35;60.08
41467;BME280;27205;53.690;19.948;2023-04-24T07:18:59;98973.66;;;16.28;60.51
41467;BME280;27205;53.690;19.948;2023-04-24T07:24:03;98969.26;;;16.20;60.73
41467;BME280;27205;53.690;19.948;2023-04-24T07:29:07;98934.77;;;16.16;61.02
41467;BME280;27205;53.690;19.948;2023-04-24T07:34:11;98940.48;;;15.89;61.81
41467;BME280;27205;53.690;19.948;2023-04-24T07:39:14;98942.32;;;15.97;62.50
41467;BME280;27205;53.690;19.948;2023-04-24T07:44:18;98934.33;;;16.28;62.82
41467;BME280;27205;53.690;19.948;2023-04-24T07:49:22;98930.23;;;16.83;62.73
41467;BME280;27205;53.690;19.948;2023-04-24T07:54:25;98926.32;;;17.53;62.70
41467;BME280;27205;53.690;19.948;2023-04-24T07:59:29;98927.21;;;18.06;62.72
41467;BME280;27205;53.690;19.948;2023-04-24T08:04:32;98926.14;;;18.52;62.66
41467;BME280;27205;53.690;19.948;2023-04-24T08:09:36;98927.12;;;19.05;62.51
41467;BME280;27205;53.690;19.948;2023-04-24T08:14:40;98926.30;;;19.31;62.38
41467;BME280;27205;53.690;19.948;2023-04-24T08:19:44;98926.16;;;19.31;61.99
41467;BME280;27205;53.690;19.948;2023-04-24T08:24:51;98926.24;;;19.25;62.11
41467;BME280;27205;53.690;19.948;2023-04-24T08:29:54;98924.10;;;19.20;61.81
41467;BME280;27205;53.690;19.948;2023-04-24T08:34:59;98924.50;;;19.17;61.69
41467;BME280;27205;53.690;19.948;2023-04-24T08:40:06;98918.05;;;19.21;61.76
41467;BME280;27205;53.690;19.948;2023-04-24T08:45:13;98916.59;;;19.42;61.89
41467;BME280;27205;53.690;19.948;2023-04-24T08:50:17;98917.58;;;19.71;61.87
41467;BME280;27205;53.690;19.948;2023-04-24T08:55:20;98910.06;;;19.99;61.72
41467;BME280;27205;53.690;19.948;2023-04-24T09:00:24;98910.74;;;20.24;61.40
41467;BME280;27205;53.690;19.948;2023-04-24T09:05:29;98909.75;;;20.53;60.89
41467;BME280;27205;53.690;19.948;2023-04-24T09:10:34;98912.30;;;20.70;60.27
41467;BME280;27205;53.690;19.948;2023-04-24T09:15:39;98915.79;;;20.86;59.78
41467;BME280;27205;53.690;19.948;2023-04-24T09:21:13;98919.14;;;21.08;59.29
41467;BME280;27205;53.690;19.948;2023-04-24T09:26:16;98922.35;;;21.43;58.42
41467;BME280;27205;53.690;19.948;2023-04-24T09:31:20;98917.66;;;21.65;57.89
41467;BME280;27205;53.690;19.948;2023-04-24T09:36:35;98913.49;;;21.88;57.26
41467;BME280;27205;53.690;19.948;2023-04-24T09:46:53;98899.02;;;22.32;55.91
41467;BME280;27205;53.690;19.948;2023-04-24T09:52:05;98895.98;;;22.47;55.25
41467;BME280;27205;53.690;19.948;2023-04-24T09:57:09;98899.52;;;22.62;54.55
41467;BME280;27205;53.690;19.948;2023-04-24T10:02:19;98899.81;;;22.74;54.21
41467;BME280;27205;53.690;19.948;2023-04-24T10:07:26;98898.52;;;22.99;54.11
41467;BME280;27205;53.690;19.948;2023-04-24T10:12:30;98895.14;;;23.23;53.20
41467;BME280;27205;53.690;19.948;2023-04-24T10:17:34;98893.55;;;23.54;52.53
41467;BME280;27205;53.690;19.948;2023-04-24T10:22:39;98890.30;;;23.98;51.87
41467;BME280;27205;53.690;19.948;2023-04-24T10:27:45;98890.96;;;24.39;50.58
41467;BME280;27205;53.690;19.948;2023-04-24T10:32:49;98888.11;;;24.66;49.58
41467;BME280;27205;53.690;19.948;2023-04-24T10:38:05;98885.21;;;24.97;48.85
41467;BME280;27205;53.690;19.948;2023-04-24T10:43:10;98885.30;;;25.32;47.73
41467;BME280;27205;53.690;19.948;2023-04-24T10:48:15;98887.45;;;25.76;47.21
41467;BME280;27205;53.690;19.948;2023-04-24T10:53:24;98888.13;;;26.11;45.93
41467;BME280;27205;53.690;19.948;2023-04-24T10:58:50;98888.00;;;26.52;45.48
41467;BME280;27205;53.690;19.948;2023-04-24T11:03:57;98892.52;;;26.73;44.02
41467;BME280;27205;53.690;19.948;2023-04-24T11:09:09;98881.31;;;26.98;43.60
41467;BME280;27205;53.690;19.948;2023-04-24T11:14:15;98887.48;;;26.97;42.83
41467;BME280;27205;53.690;19.948;2023-04-24T11:19:25;98890.83;;;26.94;42.45
41467;BME280;27205;53.690;19.948;2023-04-24T11:34:45;98888.98;;;27.11;41.13
41467;BME280;27205;53.690;19.948;2023-04-24T11:39:51;98889.92;;;27.23;40.65
41467;BME280;27205;53.690;19.948;2023-04-24T11:44:55;98894.87;;;27.29;40.22
41467;BME280;27205;53.690;19.948;2023-04-24T11:50:00;98893.67;;;27.29;39.98
41467;BME280;27205;53.690;19.948;2023-04-24T11:55:07;98896.05;;;27.00;39.75
41467;BME280;27205;53.690;19.948;2023-04-24T12:00:19;98898.63;;;26.47;39.61
41467;BME280;27205;53.690;19.948;2023-04-24T12:05:25;98887.36;;;25.74;39.77
41467;BME280;27205;53.690;19.948;2023-04-24T12:10:31;98872.41;;;25.10;41.10
41467;BME280;27205;53.690;19.948;2023-04-24T12:15:34;98864.52;;;24.86;41.56
41467;BME280;27205;53.690;19.948;2023-04-24T12:20:40;98858.77;;;24.95;41.67
41467;BME280;27205;53.690;19.948;2023-04-24T12:25:43;98858.77;;;24.99;41.55
41467;BME280;27205;53.690;19.948;2023-04-24T12:30:48;98847.47;;;25.16;41.56
41467;BME280;27205;53.690;19.948;2023-04-24T12:35:52;98842.13;;;25.26;41.96
41467;BME280;27205;53.690;19.948;2023-04-24T12:41:07;98839.27;;;25.29;42.01
41467;BME280;27205;53.690;19.948;2023-04-24T12:46:11;98832.27;;;25.24;42.13
41467;BME280;27205;53.690;19.948;2023-04-24T12:51:16;98828.85;;;25.49;41.80
41467;BME280;27205;53.690;19.948;2023-04-24T12:56:19;98818.89;;;25.95;40.95
41467;BME280;27205;53.690;19.948;2023-04-24T13:01:23;98807.17;;;26.30;39.56
41467;BME280;27205;53.690;19.948;2023-04-24T13:06:27;98796.13;;;26.68;38.05
41467;BME280;27205;53.690;19.948;2023-04-24T13:11:30;98787.08;;;26.98;36.82
41467;BME280;27205;53.690;19.948;2023-04-24T13:16:34;98780.81;;;27.26;36.37
41467;BME280;27205;53.690;19.948;2023-04-24T13:21:37;98775.27;;;27.32;35.32
41467;BME280;27205;53.690;19.948;2023-04-24T13:26:41;98768.27;;;27.26;34.68
41467;BME280;27205;53.690;19.948;2023-04-24T13:31:45;98755.61;;;27.27;34.34
41467;BME280;27205;53.690;19.948;2023-04-24T13:36:50;98752.66;;;27.34;34.03
41467;BME280;27205;53.690;19.948;2023-04-24T13:41:55;98756.04;;;27.43;33.78
41467;BME280;27205;53.690;19.948;2023-04-24T13:47:00;98752.53;;;27.68;33.25
41467;BME280;27205;53.690;19.948;2023-04-24T13:52:03;98753.09;;;28.01;33.44
41467;BME280;27205;53.690;19.948;2023-04-24T13:57:07;98762.05;;;28.51;33.02
41467;BME280;27205;53.690;19.948;2023-04-24T14:02:10;98760.23;;;29.21;33.06
41467;BME280;27205;53.690;19.948;2023-04-24T14:07:14;98761.34;;;29.80;33.17
41467;BME280;27205;53.690;19.948;2023-04-24T14:12:18;98761.30;;;31.12;32.50
41467;BME280;27205;53.690;19.948;2023-04-24T14:17:22;98764.33;;;32.38;31.62
41467;BME280;27205;53.690;19.948;2023-04-24T14:22:27;98766.80;;;34.32;30.97
41467;BME280;27205;53.690;19.948;2023-04-24T14:27:31;98761.73;;;33.60;30.93
41467;BME280;27205;53.690;19.948;2023-04-24T14:32:35;98749.58;;;31.40;29.66
41467;BME280;27205;53.690;19.948;2023-04-24T14:37:41;98747.04;;;30.52;29.58
41467;BME280;27205;53.690;19.948;2023-04-24T14:42:45;98742.20;;;33.16;28.90
41467;BME280;27205;53.690;19.948;2023-04-24T14:47:49;98743.99;;;38.96;27.37
41467;BME280;27205;53.690;19.948;2023-04-24T14:52:53;98749.46;;;43.76;25.44
41467;BME280;27205;53.690;19.948;2023-04-24T14:58:00;98746.14;;;47.40;24.13
41467;BME280;27205;53.690;19.948;2023-04-24T15:03:04;98748.55;;;49.75;21.37
41467;BME280;27205;53.690;19.948;2023-04-24T15:08:08;98749.66;;;51.82;20.01
41467;BME280;27205;53.690;19.948;2023-04-24T15:13:12;98740.30;;;52.85;18.26
41467;BME280;27205;53.690;19.948;2023-04-24T15:18:15;98742.58;;;53.63;17.38
41467;BME280;27205;53.690;19.948;2023-04-24T15:23:19;98743.92;;;54.09;16.06
41467;BME280;27205;53.690;19.948;2023-04-24T15:28:24;98746.05;;;53.03;15.24
41467;BME280;27205;53.690;19.948;2023-04-24T15:33:27;98757.17;;;48.57;14.88
41467;BME280;27205;53.690;19.948;2023-04-24T15:38:31;98744.64;;;41.59;14.93
41467;BME280;27205;53.690;19.948;2023-04-24T15:43:34;98754.55;;;35.71;16.69
41467;BME280;27205;53.690;19.948;2023-04-24T15:48:37;98740.11;;;31.67;19.37
41467;BME280;27205;53.690;19.948;2023-04-24T15:53:44;98729.92;;;28.78;21.94
41467;BME280;27205;53.690;19.948;2023-04-24T15:58:49;98731.42;;;27.82;22.74
41467;BME280;27205;53.690;19.948;2023-04-24T16:03:53;98736.50;;;29.40;22.67
41467;BME280;27205;53.690;19.948;2023-04-24T16:16:20;98739.29;;;34.75;22.03
41467;BME280;27205;53.690;19.948;2023-04-24T16:21:28;98727.84;;;33.22;22.23
41467;BME280;27205;53.690;19.948;2023-04-24T16:26:34;98718.64;;;32.05;22.76
41467;BME280;27205;53.690;19.948;2023-04-24T16:31:37;98715.15;;;31.52;23.02
41467;BME280;27205;53.690;19.948;2023-04-24T16:36:41;98721.94;;;29.81;23.61
41467;BME280;27205;53.690;19.948;2023-04-24T16:41:53;98714.54;;;27.14;24.65
41467;BME280;27205;53.690;19.948;2023-04-24T16:47:34;98709.34;;;25.08;25.65
41467;BME280;27205;53.690;19.948;2023-04-24T16:55:27;98700.36;;;23.40;27.34
41467;BME280;27205;53.690;19.948;2023-04-24T17:00:30;98703.42;;;22.26;27.64
41467;BME280;27205;53.690;19.948;2023-04-24T17:05:35;98694.80;;;21.51;28.39
41467;BME280;27205;53.690;19.948;2023-04-24T17:10:37;98693.30;;;20.82;28.71
41467;BME280;27205;53.690;19.948;2023-04-24T17:15:40;98702.26;;;20.39;29.33
41467;BME280;27205;53.690;19.948;2023-04-24T17:21:05;98685.45;;;19.88;29.91
41467;BME280;27205;53.690;19.948;2023-04-24T17:26:07;98695.95;;;19.49;30.25
41467;BME280;27205;53.690;19.948;2023-04-24T17:31:15;98694.11;;;19.05;30.76
41467;BME280;27205;53.690;19.948;2023-04-24T17:36:21;98682.33;;;18.60;31.64
41467;BME280;27205;53.690;19.948;2023-04-24T17:41:43;98682.38;;;18.23;32.33
41467;BME280;27205;53.690;19.948;2023-04-24T17:46:47;98696.55;;;17.94;33.22
41467;BME280;27205;53.690;19.948;2023-04-24T17:51:55;98709.88;;;17.73;33.68
41467;BME280;27205;53.690;19.948;2023-04-24T17:57:00;98710.43;;;17.52;34.74
41467;BME280;27205;53.690;19.948;2023-04-24T18:02:03;98716.09;;;17.35;35.01
41467;BME280;27205;53.690;19.948;2023-04-24T18:07:08;98717.09;;;17.24;35.32
41467;BME280;27205;53.690;19.948;2023-04-24T18:12:44;98704.95;;;17.02;35.65
41467;BME280;27205;53.690;19.948;2023-04-24T18:18:46;98716.05;;;16.86;36.24
41467;BME280;27205;53.690;19.948;2023-04-24T18:23:58;98719.00;;;16.73;36.96
41467;BME280;27205;53.690;19.948;2023-04-24T18:29:07;98730.59;;;16.59;37.18
41467;BME280;27205;53.690;19.948;2023-04-24T18:34:11;98725.10;;;16.44;37.69
41467;BME280;27205;53.690;19.948;2023-04-24T18:39:13;98747.20;;;16.36;38.16
41467;BME280;27205;53.690;19.948;2023-04-24T18:44:16;98765.15;;;16.25;38.52
41467;BME280;27205;53.690;19.948;2023-04-24T18:49:26;98775.50;;;16.18;38.81
41467;BME280;27205;53.690;19.948;2023-04-24T18:54:33;98774.17;;;16.03;39.38
41467;BME280;27205;53.690;19.948;2023-04-24T19:04:50;98787.85;;;15.76;40.47
41467;BME280;27205;53.690;19.948;2023-04-24T19:10:38;98788.96;;;15.49;41.56
41467;BME280;27205;53.690;19.948;2023-04-24T19:27:01;98792.18;;;15.26;44.28
41467;BME280;27205;53.690;19.948;2023-04-24T19:32:05;98790.48;;;15.10;45.40
41467;BME280;27205;53.690;19.948;2023-04-24T19:37:08;98788.96;;;14.96;45.54
41467;BME280;27205;53.690;19.948;2023-04-24T19:42:12;98790.58;;;14.83;45.27
41467;BME280;27205;53.690;19.948;2023-04-24T19:47:15;98794.20;;;14.65;46.34
41467;BME280;27205;53.690;19.948;2023-04-24T19:52:18;98799.53;;;14.47;46.35
41467;BME280;27205;53.690;19.948;2023-04-24T19:57:22;98803.95;;;14.31;46.21
41467;BME280;27205;53.690;19.948;2023-04-24T20:02:25;98801.44;;;14.13;46.98
41467;BME280;27205;53.690;19.948;2023-04-24T20:07:29;98800.80;;;13.97;47.29
41467;BME280;27205;53.690;19.948;2023-04-24T20:12:33;98801.88;;;13.86;47.48
41467;BME280;27205;53.690;19.948;2023-04-24T20:17:37;98796.77;;;13.73;47.89
41467;BME280;27205;53.690;19.948;2023-04-24T20:22:41;98791.04;;;13.64;48.06
41467;BME280;27205;53.690;19.948;2023-04-24T20:27:45;98793.30;;;13.58;48.27
41467;BME280;27205;53.690;19.948;2023-04-24T20:32:48;98781.58;;;13.48;48.42
41467;BME280;27205;53.690;19.948;2023-04-24T20:37:51;98769.65;;;13.37;49.10
41467;BME280;27205;53.690;19.948;2023-04-24T20:42:55;98762.38;;;13.31;49.83
41467;BME280;27205;53.690;19.948;2023-04-24T20:47:59;98758.05;;;13.24;50.49
41467;BME280;27205;53.690;19.948;2023-04-24T20:53:04;98748.30;;;13.24;52.61
41467;BME280;27205;53.690;19.948;2023-04-24T20:58:08;98745.52;;;13.19;53.33
41467;BME280;27205;53.690;19.948;2023-04-24T21:03:12;98742.14;;;13.16;53.05
41467;BME280;27205;53.690;19.948;2023-04-24T21:08:16;98735.67;;;13.14;53.13
41467;BME280;27205;53.690;19.948;2023-04-24T21:13:19;98730.02;;;13.12;53.57
41467;BME280;27205;53.690;19.948;2023-04-24T21:18:23;98720.81;;;13.07;53.45
41467;BME280;27205;53.690;19.948;2023-04-24T21:23:26;98716.02;;;13.03;53.74
41467;BME280;27205;53.690;19.948;2023-04-24T21:28:30;98712.03;;;12.99;54.40
41467;BME280;27205;53.690;19.948;2023-04-24T21:33:34;98710.23;;;12.96;55.28
41467;BME280;27205;53.690;19.948;2023-04-24T21:38:37;98707.67;;;12.89;56.06
41467;BME280;27205;53.690;19.948;2023-04-24T21:43:42;98702.92;;;12.84;55.76
41467;BME280;27205;53.690;19.948;2023-04-24T21:48:48;98697.91;;;12.82;56.12
41467;BME280;27205;53.690;19.948;2023-04-24T21:53:52;98692.02;;;12.85;55.90
41467;BME280;27205;53.690;19.948;2023-04-24T21:58:55;98688.33;;;12.89;55.90
41467;BME280;27205;53.690;19.948;2023-04-24T22:03:59;98679.22;;;12.92;55.95
41467;BME280;27205;53.690;19.948;2023-04-24T22:09:05;98676.81;;;12.99;56.02
41467;BME280;27205;53.690;19.948;2023-04-24T22:14:09;98675.52;;;12.97;56.19
41467;BME280;27205;53.690;19.948;2023-04-24T22:19:13;98672.09;;;13.02;56.08
41467;BME280;27205;53.690;19.948;2023-04-24T22:24:17;98673.10;;;13.06;56.15
41467;BME280;27205;53.690;19.948;2023-04-24T22:29:20;98667.73;;;13.06;56.46
41467;BME280;27205;53.690;19.948;2023-04-24T22:34:24;98663.08;;;13.10;56.42
41467;BME280;27205;53.690;19.948;2023-04-24T22:39:27;98661.02;;;13.09;56.97
41467;BME280;27205;53.690;19.948;2023-04-24T22:44:31;98656.63;;;13.07;56.87
41467;BME280;27205;53.690;19.948;2023-04-24T22:49:34;98654.96;;;13.07;57.52
41467;BME280;27205;53.690;19.948;2023-04-24T22:54:38;98651.61;;;13.05;57.84
41467;BME280;27205;53.690;19.948;2023-04-24T22:59:41;98647.27;;;13.04;57.79
41467;BME280;27205;53.690;19.948;2023-04-24T23:04:45;98647.23;;;13.03;57.42
41467;BME280;27205;53.690;19.948;2023-04-24T23:09:50;98643.18;;;13.04;57.97
41467;BME280;27205;53.690;19.948;2023-04-24T23:14:53;98639.75;;;13.01;58.36
41467;BME280;27205;53.690;19.948;2023-04-24T23:19:57;98638.09;;;13.02;58.44
41467;BME280;27205;53.690;19.948;2023-04-24T23:25:00;98636.61;;;13.04;58.56
41467;BME280;27205;53.690;19.948;2023-04-24T23:30:04;98631.73;;;13.04;58.63
41467;BME280;27205;53.690;19.948;2023-04-24T23:35:08;98637.27;;;13.03;58.52
41467;BME280;27205;53.690;19.948;2023-04-24T23:40:12;98640.25;;;13.02;59.32
41467;BME280;27205;53.690;19.948;2023-04-24T23:45:16;98648.32;;;12.98;59.01
41467;BME280;27205;53.690;19.948;2023-04-24T23:50:19;98648.06;;;12.92;59.20
41467;BME280;27205;53.690;19.948;2023-04-24T23:55:23;98648.06;;;12.84;59.65
